sensor_id;sensor_type;location;lat;lon;timestamp;temperature;humidity
16315;DHT22;8266;52.150;4.768;2023-03-05T00:01:52;6.90;99.90
16315;DHT22;8266;52.150;4.768;2023-03-05T00:04:19;6.80;99.90
16315;DHT22;8266;52.150;4.768;2023-03-05T00:06:46;6.80;99.90
16315;DHT22;8266;52.150;4.768;2023-03-05T00:09:15;6.80;99.90
16315;DHT22;8266;52.150;4.768;2023-03-05T00:11:42;6.70;99.90
16315;DHT22;8266;52.150;4.768;2023-03-05T00:14:10;6.70;99.90
16315;DHT22;8266;52.150;4.768;2023-03-05T00:16:37;6.60;99.90
16315;DHT22;8266;52.150;4.768;2023-03-05T00:19:05;6.60;99.90
16315;DHT22;8266;52.150;4.768;2023-03-05T00:21:34;6.50;99.90
16315;DHT22;8266;52.150;4.768;2023-03-05T00:24:04;6.50;99.90
16315;DHT22;8266;52.150;4.768;2023-03-05T00:26:34;6.40;99.90
16315;DHT22;8266;52.150;4.768;2023-03-05T00:29:04;6.40;99.90
16315;DHT22;8266;52.150;4.768;2023-03-05T00:31:32;6.40;99.90
16315;DHT22;8266;52.150;4.768;2023-03-05T00:34:01;6.40;99.90
16315;DHT22;8266;52.150;4.768;2023-03-05T00:36:28;6.40;99.90
16315;DHT22;8266;52.150;4.768;2023-03-05T00:38:55;6.30;99.90
16315;DHT22;8266;52.150;4.768;2023-03-05T00:41:22;6.40;99.90
16315;DHT22;8266;52.150;4.768;2023-03-05T00:43:51;6.30;99.90
16315;DHT22;8266;52.150;4.768;2023-03-05T00:46:17;6.40;99.90
16315;DHT22;8266;52.150;4.768;2023-03-05T00:48:44;6.30;99.90
16315;DHT22;8266;52.150;4.768;2023-03-05T00:51:11;6.30;99.90
16315;DHT22;8266;52.150;4.768;2023-03-05T00:53:38;6.30;99.90
16315;DHT22;8266;52.150;4.768;2023-03-05T00:56:06;6.40;99.90
16315;DHT22;8266;52.150;4.768;2023-03-05T00:58:33;6.30;99.90
16315;DHT22;8266;52.150;4.768;2023-03-05T01:01:01;6.30;99.90
16315;DHT22;8266;52.150;4.768;2023-03-05T01:03:30;6.30;99.90
16315;DHT22;8266;52.150;4.768;2023-03-05T01:05:57;6.30;99.90
16315;DHT22;8266;52.150;4.768;2023-03-05T01:08:25;6.30;99.90
16315;DHT22;8266;52.150;4.768;2023-03-05T01:10:52;6.30;99.90
16315;DHT22;8266;52.150;4.768;2023-03-05T01:13:19;6.30;99.90
16315;DHT22;8266;52.150;4.768;2023-03-05T01:15:47;6.20;99.90
16315;DHT22;8266;52.150;4.768;2023-03-05T01:18:17;6.20;99.90
16315;DHT22;8266;52.150;4.768;2023-03-05T01:20:44;6.20;99.90
16315;DHT22;8266;52.150;4.768;2023-03-05T01:23:11;6.20;99.90
16315;DHT22;8266;52.150;4.768;2023-03-05T01:25:38;6.20;99.90
16315;DHT22;8266;52.150;4.768;2023-03-05T01:28:05;6.20;99.90
16315;DHT22;8266;52.150;4.768;2023-03-05T01:30:33;6.20;99.90
16315;DHT22;8266;52.150;4.768;2023-03-05T01:33:00;6.20;99.90
16315;DHT22;8266;52.150;4.768;2023-03-05T01:35:29;6.20;99.90
16315;DHT22;8266;52.150;4.768;2023-03-05T01:37:56;6.30;99.90
16315;DHT22;8266;52.150;4.768;2023-03-05T01:40:25;6.30;99.90
16315;DHT22;8266;52.150;4.768;2023-03-05T01:42:57;6.30;99.90
16315;DHT22;8266;52.150;4.768;2023-03-05T01:45:25;6.30;99.90
16315;DHT22;8266;52.150;4.768;2023-03-05T01:47:52;6.40;99.90
16315;DHT22;8266;52.150;4.768;2023-03-05T01:50:22;6.40;99.90
16315;DHT22;8266;52.150;4.768;2023-03-05T01:52:55;6.40;99.90
16315;DHT22;8266;52.150;4.768;2023-03-05T01:55:25;6.50;99.90
16315;DHT22;8266;52.150;4.768;2023-03-05T01:57:55;6.50;99.90
16315;DHT22;8266;52.150;4.768;2023-03-05T02:00:26;6.50;99.90
16315;DHT22;8266;52.150;4.768;2023-03-05T02:02:56;6.50;99.90
16315;DHT22;8266;52.150;4.768;2023-03-05T02:05:26;6.50;99.90
16315;DHT22;8266;52.150;4.768;2023-03-05T02:07:56;6.50;99.90
16315;DHT22;8266;52.150;4.768;2023-03-05T02:10:26;6.60;99.90
16315;DHT22;8266;52.150;4.768;2023-03-05T02:12:56;6.50;99.90
16315;DHT22;8266;52.150;4.768;2023-03-05T02:15:24;6.50;99.90
16315;DHT22;8266;52.150;4.768;2023-03-05T02:17:51;6.50;99.90
16315;DHT22;8266;52.150;4.768;2023-03-05T02:20:21;6.50;99.90
16315;DHT22;8266;52.150;4.768;2023-03-05T02:22:50;6.40;99.90
16315;DHT22;8266;52.150;4.768;2023-03-05T02:25:18;6.40;99.90
16315;DHT22;8266;52.150;4.768;2023-03-05T02:27:51;6.40;99.90
16315;DHT22;8266;52.150;4.768;2023-03-05T02:30:20;6.30;99.90
16315;DHT22;8266;52.150;4.768;2023-03-05T02:32:47;6.20;99.90
16315;DHT22;8266;52.150;4.768;2023-03-05T02:35:14;6.20;99.90
16315;DHT22;8266;52.150;4.768;2023-03-05T02:37:41;6.20;99.90
16315;DHT22;8266;52.150;4.768;2023-03-05T02:40:11;6.20;99.90
16315;DHT22;8266;52.150;4.768;2023-03-05T02:42:39;6.10;99.90
16315;DHT22;8266;52.150;4.768;2023-03-05T02:45:07;6.10;99.90
16315;DHT22;8266;52.150;4.768;2023-03-05T02:47:35;6.10;99.90
16315;DHT22;8266;52.150;4.768;2023-03-05T02:50:03;6.10;99.90
16315;DHT22;8266;52.150;4.768;2023-03-05T02:52:31;6.00;99.90
16315;DHT22;8266;52.150;4.768;2023-03-05T02:54:58;6.00;99.90
16315;DHT22;8266;52.150;4.768;2023-03-05T02:57:26;6.00;99.90
16315;DHT22;8266;52.150;4.768;2023-03-05T02:59:53;6.00;99.90
16315;DHT22;8266;52.150;4.768;2023-03-05T03:02:20;6.00;99.90
16315;DHT22;8266;52.150;4.768;2023-03-05T03:04:47;5.90;99.90
16315;DHT22;8266;52.150;4.768;2023-03-05T03:07:15;5.90;99.90
16315;DHT22;8266;52.150;4.768;2023-03-05T03:09:42;5.90;99.90
16315;DHT22;8266;52.150;4.768;2023-03-05T03:12:09;6.00;99.90
16315;DHT22;8266;52.150;4.768;2023-03-05T03:14:41;6.00;99.90
16315;DHT22;8266;52.150;4.768;2023-03-05T03:17:09;6.00;99.90
16315;DHT22;8266;52.150;4.768;2023-03-05T03:19:37;6.10;99.90
16315;DHT22;8266;52.150;4.768;2023-03-05T03:22:06;6.10;99.90
16315;DHT22;8266;52.150;4.768;2023-03-05T03:24:34;6.10;99.90
16315;DHT22;8266;52.150;4.768;2023-03-05T03:27:01;6.10;99.90
16315;DHT22;8266;52.150;4.768;2023-03-05T03:29:29;6.10;99.90
16315;DHT22;8266;52.150;4.768;2023-03-05T03:31:57;6.10;99.90
16315;DHT22;8266;52.150;4.768;2023-03-05T03:34:24;6.10;99.90
16315;DHT22;8266;52.150;4.768;2023-03-05T03:36:51;6.10;99.90
16315;DHT22;8266;52.150;4.768;2023-03-05T03:39:19;6.10;99.90
16315;DHT22;8266;52.150;4.768;2023-03-05T03:41:49;6.20;99.90
16315;DHT22;8266;52.150;4.768;2023-03-05T03:44:16;6.20;99.90
16315;DHT22;8266;52.150;4.768;2023-03-05T03:46:44;6.20;99.90
16315;DHT22;8266;52.150;4.768;2023-03-05T03:49:16;6.20;99.90
16315;DHT22;8266;52.150;4.768;2023-03-05T03:51:44;6.20;99.90
16315;DHT22;8266;52.150;4.768;2023-03-05T03:54:11;6.20;99.90
16315;DHT22;8266;52.150;4.768;2023-03-05T03:56:39;6.20;99.90
16315;DHT22;8266;52.150;4.768;2023-03-05T03:59:06;6.20;99.90
16315;DHT22;8266;52.150;4.768;2023-03-05T04:01:33;6.20;99.90
16315;DHT22;8266;52.150;4.768;2023-03-05T04:04:00;6.20;99.90
16315;DHT22;8266;52.150;4.768;2023-03-05T04:06:29;6.30;99.90
16315;DHT22;8266;52.150;4.768;2023-03-05T04:08:56;6.30;99.90
16315;DHT22;8266;52.150;4.768;2023-03-05T04:11:23;6.30;99.90
16315;DHT22;8266;52.150;4.768;2023-03-05T04:13:51;6.30;99.90
16315;DHT22;8266;52.150;4.768;2023-03-05T04:16:18;6.30;99.90
16315;DHT22;8266;52.150;4.768;2023-03-05T04:18:45;6.30;99.90
16315;DHT22;8266;52.150;4.768;2023-03-05T04:21:12;6.30;99.90
16315;DHT22;8266;52.150;4.768;2023-03-05T04:23:41;6.40;99.90
16315;DHT22;8266;52.150;4.768;2023-03-05T04:26:08;6.40;99.90
16315;DHT22;8266;52.150;4.768;2023-03-05T04:28:35;6.40;99.90
16315;DHT22;8266;52.150;4.768;2023-03-05T04:31:02;6.40;99.90
16315;DHT22;8266;52.150;4.768;2023-03-05T04:33:30;6.40;99.90
16315;DHT22;8266;52.150;4.768;2023-03-05T04:35:57;6.40;99.90
16315;DHT22;8266;52.150;4.768;2023-03-05T04:38:24;6.40;99.90
16315;DHT22;8266;52.150;4.768;2023-03-05T04:40:52;6.50;99.90
16315;DHT22;8266;52.150;4.768;2023-03-05T04:43:19;6.50;99.90
16315;DHT22;8266;52.150;4.768;2023-03-05T04:45:46;6.50;99.90
16315;DHT22;8266;52.150;4.768;2023-03-05T04:48:13;6.50;99.90
16315;DHT22;8266;52.150;4.768;2023-03-05T04:50:41;6.50;99.90
16315;DHT22;8266;52.150;4.768;2023-03-05T04:53:08;6.50;99.90
16315;DHT22;8266;52.150;4.768;2023-03-05T04:55:35;6.60;99.90
16315;DHT22;8266;52.150;4.768;2023-03-05T04:58:03;6.50;99.90
16315;DHT22;8266;52.150;4.768;2023-03-05T05:00:30;6.50;99.90
16315;DHT22;8266;52.150;4.768;2023-03-05T05:02:57;6.50;99.90
16315;DHT22;8266;52.150;4.768;2023-03-05T05:05:26;6.50;99.90
16315;DHT22;8266;52.150;4.768;2023-03-05T05:07:53;6.50;99.90
16315;DHT22;8266;52.150;4.768;2023-03-05T05:10:21;6.40;99.90
16315;DHT22;8266;52.150;4.768;2023-03-05T05:12:48;6.40;99.90
16315;DHT22;8266;52.150;4.768;2023-03-05T05:15:17;6.40;99.90
16315;DHT22;8266;52.150;4.768;2023-03-05T05:17:44;6.40;99.90
16315;DHT22;8266;52.150;4.768;2023-03-05T05:20:13;6.30;99.90
16315;DHT22;8266;52.150;4.768;2023-03-05T05:22:40;6.30;99.90
16315;DHT22;8266;52.150;4.768;2023-03-05T05:25:08;6.30;99.90
16315;DHT22;8266;52.150;4.768;2023-03-05T05:27:36;6.30;99.90
16315;DHT22;8266;52.150;4.768;2023-03-05T05:30:04;6.20;99.90
16315;DHT22;8266;52.150;4.768;2023-03-05T05:32:33;6.20;99.90
16315;DHT22;8266;52.150;4.768;2023-03-05T05:35:01;6.20;99.90
16315;DHT22;8266;52.150;4.768;2023-03-05T05:37:28;6.20;99.90
16315;DHT22;8266;52.150;4.768;2023-03-05T05:39:55;6.20;99.90
16315;DHT22;8266;52.150;4.768;2023-03-05T05:42:23;6.10;99.90
16315;DHT22;8266;52.150;4.768;2023-03-05T05:44:50;6.10;99.90
16315;DHT22;8266;52.150;4.768;2023-03-05T05:47:18;6.10;99.90
16315;DHT22;8266;52.150;4.768;2023-03-05T05:49:46;6.00;99.90
16315;DHT22;8266;52.150;4.768;2023-03-05T05:52:13;6.00;99.90
16315;DHT22;8266;52.150;4.768;2023-03-05T05:54:40;6.00;99.90
16315;DHT22;8266;52.150;4.768;2023-03-05T05:57:07;5.90;99.90
16315;DHT22;8266;52.150;4.768;2023-03-05T05:59:34;5.90;99.90
16315;DHT22;8266;52.150;4.768;2023-03-05T06:02:01;5.80;99.90
16315;DHT22;8266;52.150;4.768;2023-03-05T06:04:29;5.80;99.90
16315;DHT22;8266;52.150;4.768;2023-03-05T06:06:57;5.80;99.90
16315;DHT22;8266;52.150;4.768;2023-03-05T06:09:25;5.80;99.90
16315;DHT22;8266;52.150;4.768;2023-03-05T06:11:52;5.70;99.90
16315;DHT22;8266;52.150;4.768;2023-03-05T06:14:19;5.70;99.90
16315;DHT22;8266;52.150;4.768;2023-03-05T06:16:46;5.70;99.90
16315;DHT22;8266;52.150;4.768;2023-03-05T06:19:14;5.70;99.90
16315;DHT22;8266;52.150;4.768;2023-03-05T06:21:41;5.70;99.90
16315;DHT22;8266;52.150;4.768;2023-03-05T06:24:10;5.60;99.90
16315;DHT22;8266;52.150;4.768;2023-03-05T06:26:37;5.60;99.90
16315;DHT22;8266;52.150;4.768;2023-03-05T06:29:04;5.70;99.90
16315;DHT22;8266;52.150;4.768;2023-03-05T06:31:31;5.60;99.90
16315;DHT22;8266;52.150;4.768;2023-03-05T06:33:59;5.60;99.90
16315;DHT22;8266;52.150;4.768;2023-03-05T06:36:27;5.50;99.90
16315;DHT22;8266;52.150;4.768;2023-03-05T06:38:55;5.60;99.90
16315;DHT22;8266;52.150;4.768;2023-03-05T06:41:26;5.60;99.90
16315;DHT22;8266;52.150;4.768;2023-03-05T06:43:54;5.60;99.90
16315;DHT22;8266;52.150;4.768;2023-03-05T06:46:23;5.60;99.90
16315;DHT22;8266;52.150;4.768;2023-03-05T06:48:51;5.70;99.90
16315;DHT22;8266;52.150;4.768;2023-03-05T06:51:19;5.70;99.90
16315;DHT22;8266;52.150;4.768;2023-03-05T06:53:47;5.70;99.90
16315;DHT22;8266;52.150;4.768;2023-03-05T06:56:15;5.80;99.90
16315;DHT22;8266;52.150;4.768;2023-03-05T06:58:45;5.80;99.90
16315;DHT22;8266;52.150;4.768;2023-03-05T07:01:12;5.90;99.90
16315;DHT22;8266;52.150;4.768;2023-03-05T07:03:40;5.90;99.90
16315;DHT22;8266;52.150;4.768;2023-03-05T07:06:09;5.90;99.90
16315;DHT22;8266;52.150;4.768;2023-03-05T07:08:37;5.90;99.90
16315;DHT22;8266;52.150;4.768;2023-03-05T07:11:08;5.90;99.90
16315;DHT22;8266;52.150;4.768;2023-03-05T07:13:35;5.90;99.90
16315;DHT22;8266;52.150;4.768;2023-03-05T07:16:06;5.90;99.90
16315;DHT22;8266;52.150;4.768;2023-03-05T07:18:33;5.90;99.90
16315;DHT22;8266;52.150;4.768;2023-03-05T07:21:05;5.90;99.90
16315;DHT22;8266;52.150;4.768;2023-03-05T07:23:32;5.90;99.90
16315;DHT22;8266;52.150;4.768;2023-03-05T07:26:00;6.00;99.90
16315;DHT22;8266;52.150;4.768;2023-03-05T07:28:27;6.00;99.90
16315;DHT22;8266;52.150;4.768;2023-03-05T07:30:56;6.00;99.90
16315;DHT22;8266;52.150;4.768;2023-03-05T07:33:25;6.00;99.90
16315;DHT22;8266;52.150;4.768;2023-03-05T07:35:52;6.00;99.90
16315;DHT22;8266;52.150;4.768;2023-03-05T07:38:19;6.10;99.90
16315;DHT22;8266;52.150;4.768;2023-03-05T07:40:46;6.10;99.90
16315;DHT22;8266;52.150;4.768;2023-03-05T07:43:13;6.10;99.90
16315;DHT22;8266;52.150;4.768;2023-03-05T07:45:41;6.20;99.90
16315;DHT22;8266;52.150;4.768;2023-03-05T07:48:12;6.20;99.90
16315;DHT22;8266;52.150;4.768;2023-03-05T07:50:41;6.30;99.90
16315;DHT22;8266;52.150;4.768;2023-03-05T07:53:08;6.40;99.90
16315;DHT22;8266;52.150;4.768;2023-03-05T07:55:41;6.40;99.90
16315;DHT22;8266;52.150;4.768;2023-03-05T07:58:08;6.40;99.90
16315;DHT22;8266;52.150;4.768;2023-03-05T08:00:35;6.40;99.90
16315;DHT22;8266;52.150;4.768;2023-03-05T08:03:02;6.50;99.90
16315;DHT22;8266;52.150;4.768;2023-03-05T08:05:29;6.60;99.90
16315;DHT22;8266;52.150;4.768;2023-03-05T08:07:58;6.70;99.90
16315;DHT22;8266;52.150;4.768;2023-03-05T08:10:25;6.80;99.90
16315;DHT22;8266;52.150;4.768;2023-03-05T08:12:52;6.90;99.90
16315;DHT22;8266;52.150;4.768;2023-03-05T08:15:19;6.90;99.90
16315;DHT22;8266;52.150;4.768;2023-03-05T08:17:46;7.00;99.90
16315;DHT22;8266;52.150;4.768;2023-03-05T08:20:13;7.10;99.90
16315;DHT22;8266;52.150;4.768;2023-03-05T08:22:40;7.20;99.90
16315;DHT22;8266;52.150;4.768;2023-03-05T08:25:16;7.30;99.90
16315;DHT22;8266;52.150;4.768;2023-03-05T08:27:45;7.40;99.90
16315;DHT22;8266;52.150;4.768;2023-03-05T08:30:20;7.50;99.90
16315;DHT22;8266;52.150;4.768;2023-03-05T08:32:52;7.60;99.90
16315;DHT22;8266;52.150;4.768;2023-03-05T08:35:19;7.60;99.90
16315;DHT22;8266;52.150;4.768;2023-03-05T08:37:47;7.60;99.90
16315;DHT22;8266;52.150;4.768;2023-03-05T08:40:16;7.60;99.90
16315;DHT22;8266;52.150;4.768;2023-03-05T08:42:44;7.60;99.90
16315;DHT22;8266;52.150;4.768;2023-03-05T08:45:11;7.50;99.90
16315;DHT22;8266;52.150;4.768;2023-03-05T08:47:38;7.40;99.90
16315;DHT22;8266;52.150;4.768;2023-03-05T08:50:06;7.40;99.90
16315;DHT22;8266;52.150;4.768;2023-03-05T08:52:33;7.30;99.90
16315;DHT22;8266;52.150;4.768;2023-03-05T08:55:00;7.30;99.90
16315;DHT22;8266;52.150;4.768;2023-03-05T08:57:30;7.30;99.90
16315;DHT22;8266;52.150;4.768;2023-03-05T08:59:57;7.30;99.90
16315;DHT22;8266;52.150;4.768;2023-03-05T09:02:24;7.30;99.90
16315;DHT22;8266;52.150;4.768;2023-03-05T09:04:51;7.50;99.90
16315;DHT22;8266;52.150;4.768;2023-03-05T09:07:18;7.50;99.90
16315;DHT22;8266;52.150;4.768;2023-03-05T09:09:45;7.60;99.90
16315;DHT22;8266;52.150;4.768;2023-03-05T09:12:12;7.80;99.90
16315;DHT22;8266;52.150;4.768;2023-03-05T09:14:42;8.00;99.90
16315;DHT22;8266;52.150;4.768;2023-03-05T09:17:09;8.30;99.90
16315;DHT22;8266;52.150;4.768;2023-03-05T09:19:38;8.60;99.90
16315;DHT22;8266;52.150;4.768;2023-03-05T09:22:05;8.90;99.90
16315;DHT22;8266;52.150;4.768;2023-03-05T09:24:32;9.20;99.90
16315;DHT22;8266;52.150;4.768;2023-03-05T09:26:59;9.50;99.90
16315;DHT22;8266;52.150;4.768;2023-03-05T09:29:27;9.80;99.90
16315;DHT22;8266;52.150;4.768;2023-03-05T09:31:57;10.00;99.90
16315;DHT22;8266;52.150;4.768;2023-03-05T09:34:24;10.30;99.90
16315;DHT22;8266;52.150;4.768;2023-03-05T09:36:51;10.50;99.90
16315;DHT22;8266;52.150;4.768;2023-03-05T09:39:18;10.70;99.90
16315;DHT22;8266;52.150;4.768;2023-03-05T09:42:01;11.00;99.90
16315;DHT22;8266;52.150;4.768;2023-03-05T09:44:36;11.20;99.90
16315;DHT22;8266;52.150;4.768;2023-03-05T09:47:20;11.40;99.90
16315;DHT22;8266;52.150;4.768;2023-03-05T09:49:56;11.50;99.90
16315;DHT22;8266;52.150;4.768;2023-03-05T09:52:33;11.50;99.90
16315;DHT22;8266;52.150;4.768;2023-03-05T09:55:02;11.40;99.90
16315;DHT22;8266;52.150;4.768;2023-03-05T09:57:35;11.30;99.90
16315;DHT22;8266;52.150;4.768;2023-03-05T10:00:10;11.20;99.90
16315;DHT22;8266;52.150;4.768;2023-03-05T10:02:48;11.10;99.90
16315;DHT22;8266;52.150;4.768;2023-03-05T10:05:21;10.90;99.90
16315;DHT22;8266;52.150;4.768;2023-03-05T10:07:53;10.80;99.90
16315;DHT22;8266;52.150;4.768;2023-03-05T10:10:25;10.70;99.90
16315;DHT22;8266;52.150;4.768;2023-03-05T10:12:55;10.60;99.90
16315;DHT22;8266;52.150;4.768;2023-03-05T10:15:28;10.60;99.90
16315;DHT22;8266;52.150;4.768;2023-03-05T10:18:04;10.60;99.90
16315;DHT22;8266;52.150;4.768;2023-03-05T10:20:54;10.60;99.90
16315;DHT22;8266;52.150;4.768;2023-03-05T10:23:30;10.70;99.90
16315;DHT22;8266;52.150;4.768;2023-03-05T10:26:05;10.70;99.90
16315;DHT22;8266;52.150;4.768;2023-03-05T10:28:38;10.70;99.90
16315;DHT22;8266;52.150;4.768;2023-03-05T10:31:26;10.70;99.90
16315;DHT22;8266;52.150;4.768;2023-03-05T10:34:11;10.60;99.90
16315;DHT22;8266;52.150;4.768;2023-03-05T10:36:54;10.60;99.90
16315;DHT22;8266;52.150;4.768;2023-03-05T10:39:41;10.60;99.90
16315;DHT22;8266;52.150;4.768;2023-03-05T10:42:18;10.50;99.90
16315;DHT22;8266;52.150;4.768;2023-03-05T10:44:52;10.50;99.90
16315;DHT22;8266;52.150;4.768;2023-03-05T10:47:24;10.50;99.90
16315;DHT22;8266;52.150;4.768;2023-03-05T10:49:55;10.50;99.90
16315;DHT22;8266;52.150;4.768;2023-03-05T10:52:26;10.60;99.90
16315;DHT22;8266;52.150;4.768;2023-03-05T10:54:54;10.60;99.90
16315;DHT22;8266;52.150;4.768;2023-03-05T10:57:23;10.70;99.90
16315;DHT22;8266;52.150;4.768;2023-03-05T10:59:52;10.70;99.90
16315;DHT22;8266;52.150;4.768;2023-03-05T11:02:20;10.80;99.90
16315;DHT22;8266;52.150;4.768;2023-03-05T11:04:48;10.80;99.90
16315;DHT22;8266;52.150;4.768;2023-03-05T11:07:36;10.90;99.90
16315;DHT22;8266;52.150;4.768;2023-03-05T11:10:13;11.00;99.90
16315;DHT22;8266;52.150;4.768;2023-03-05T11:12:41;11.10;99.90
16315;DHT22;8266;52.150;4.768;2023-03-05T11:15:23;11.20;99.90
16315;DHT22;8266;52.150;4.768;2023-03-05T11:18:05;11.30;99.90
16315;DHT22;8266;52.150;4.768;2023-03-05T11:20:34;11.50;99.90
16315;DHT22;8266;52.150;4.768;2023-03-05T11:23:10;11.60;99.90
16315;DHT22;8266;52.150;4.768;2023-03-05T11:25:56;11.70;99.90
16315;DHT22;8266;52.150;4.768;2023-03-05T11:28:28;11.80;99.90
16315;DHT22;8266;52.150;4.768;2023-03-05T11:30:58;11.90;99.90
16315;DHT22;8266;52.150;4.768;2023-03-05T11:33:26;11.90;99.90
16315;DHT22;8266;52.150;4.768;2023-03-05T11:36:22;11.90;99.90
16315;DHT22;8266;52.150;4.768;2023-03-05T11:38:53;11.90;99.90
16315;DHT22;8266;52.150;4.768;2023-03-05T11:41:28;11.80;99.90
16315;DHT22;8266;52.150;4.768;2023-03-05T11:43:56;11.80;99.90
16315;DHT22;8266;52.150;4.768;2023-03-05T11:46:24;11.80;99.90
16315;DHT22;8266;52.150;4.768;2023-03-05T11:48:53;11.80;99.90
16315;DHT22;8266;52.150;4.768;2023-03-05T11:51:25;11.90;99.90
16315;DHT22;8266;52.150;4.768;2023-03-05T11:53:59;11.90;99.90
16315;DHT22;8266;52.150;4.768;2023-03-05T11:56:35;11.90;99.90
16315;DHT22;8266;52.150;4.768;2023-03-05T11:59:06;12.00;99.90
16315;DHT22;8266;52.150;4.768;2023-03-05T12:01:42;12.00;99.90
16315;DHT22;8266;52.150;4.768;2023-03-05T12:04:11;12.10;99.90
16315;DHT22;8266;52.150;4.768;2023-03-05T12:06:40;12.20;99.90
16315;DHT22;8266;52.150;4.768;2023-03-05T12:09:14;12.20;99.90
16315;DHT22;8266;52.150;4.768;2023-03-05T12:11:47;12.20;99.90
16315;DHT22;8266;52.150;4.768;2023-03-05T12:14:18;12.20;99.90
16315;DHT22;8266;52.150;4.768;2023-03-05T12:16:52;12.30;99.90
16315;DHT22;8266;52.150;4.768;2023-03-05T12:19:44;12.30;99.90
16315;DHT22;8266;52.150;4.768;2023-03-05T12:22:16;12.30;99.90
16315;DHT22;8266;52.150;4.768;2023-03-05T12:24:46;12.20;99.90
16315;DHT22;8266;52.150;4.768;2023-03-05T12:27:15;12.20;99.90
16315;DHT22;8266;52.150;4.768;2023-03-05T12:29:47;12.20;99.90
16315;DHT22;8266;52.150;4.768;2023-03-05T12:35:34;12.10;99.90
16315;DHT22;8266;52.150;4.768;2023-03-05T12:38:29;12.00;99.90
16315;DHT22;8266;52.150;4.768;2023-03-05T12:44:16;12.00;99.90
16315;DHT22;8266;52.150;4.768;2023-03-05T12:46:45;12.00;99.90
16315;DHT22;8266;52.150;4.768;2023-03-05T12:49:37;12.00;99.90
16315;DHT22;8266;52.150;4.768;2023-03-05T12:52:11;12.00;99.90
16315;DHT22;8266;52.150;4.768;2023-03-05T12:54:41;12.00;99.90
16315;DHT22;8266;52.150;4.768;2023-03-05T12:57:16;12.00;99.90
16315;DHT22;8266;52.150;4.768;2023-03-05T12:59:50;11.90;99.90
16315;DHT22;8266;52.150;4.768;2023-03-05T13:02:24;11.90;99.90
16315;DHT22;8266;52.150;4.768;2023-03-05T13:04:57;11.90;99.90
16315;DHT22;8266;52.150;4.768;2023-03-05T13:07:25;12.00;99.90
16315;DHT22;8266;52.150;4.768;2023-03-05T13:09:52;12.00;99.90
16315;DHT22;8266;52.150;4.768;2023-03-05T13:12:21;12.00;99.90
16315;DHT22;8266;52.150;4.768;2023-03-05T13:14:56;12.10;99.90
16315;DHT22;8266;52.150;4.768;2023-03-05T13:17:27;12.20;99.90
16315;DHT22;8266;52.150;4.768;2023-03-05T13:19:55;12.20;99.90
16315;DHT22;8266;52.150;4.768;2023-03-05T13:22:22;12.20;99.90
16315;DHT22;8266;52.150;4.768;2023-03-05T13:25:13;12.20;99.90
16315;DHT22;8266;52.150;4.768;2023-03-05T13:27:41;12.20;99.90
16315;DHT22;8266;52.150;4.768;2023-03-05T13:30:25;12.10;99.90
16315;DHT22;8266;52.150;4.768;2023-03-05T13:32:55;12.10;99.90
16315;DHT22;8266;52.150;4.768;2023-03-05T13:35:23;12.00;99.90
16315;DHT22;8266;52.150;4.768;2023-03-05T13:37:51;12.00;99.90
16315;DHT22;8266;52.150;4.768;2023-03-05T13:40:21;11.90;99.90
16315;DHT22;8266;52.150;4.768;2023-03-05T13:42:48;11.90;99.90
16315;DHT22;8266;52.150;4.768;2023-03-05T13:45:24;11.90;99.90
16315;DHT22;8266;52.150;4.768;2023-03-05T13:47:54;11.90;99.90
16315;DHT22;8266;52.150;4.768;2023-03-05T13:50:24;11.90;99.90
16315;DHT22;8266;52.150;4.768;2023-03-05T13:52:52;11.90;99.90
16315;DHT22;8266;52.150;4.768;2023-03-05T13:55:19;11.90;99.90
16315;DHT22;8266;52.150;4.768;2023-03-05T13:57:49;11.90;99.90
16315;DHT22;8266;52.150;4.768;2023-03-05T14:00:31;11.90;99.90
16315;DHT22;8266;52.150;4.768;2023-03-05T14:03:06;11.90;99.90
16315;DHT22;8266;52.150;4.768;2023-03-05T14:05:34;11.90;99.90
16315;DHT22;8266;52.150;4.768;2023-03-05T14:08:02;11.90;99.90
16315;DHT22;8266;52.150;4.768;2023-03-05T14:10:35;11.90;99.90
16315;DHT22;8266;52.150;4.768;2023-03-05T14:13:04;11.90;99.90
16315;DHT22;8266;52.150;4.768;2023-03-05T14:15:34;11.90;99.90
16315;DHT22;8266;52.150;4.768;2023-03-05T14:18:15;11.90;99.90
16315;DHT22;8266;52.150;4.768;2023-03-05T14:20:58;11.90;99.90
16315;DHT22;8266;52.150;4.768;2023-03-05T14:23:33;11.90;99.90
16315;DHT22;8266;52.150;4.768;2023-03-05T14:26:23;11.90;99.90
16315;DHT22;8266;52.150;4.768;2023-03-05T14:28:53;11.90;99.90
16315;DHT22;8266;52.150;4.768;2023-03-05T14:31:23;11.80;99.90
16315;DHT22;8266;52.150;4.768;2023-03-05T14:33:51;11.80;99.90
16315;DHT22;8266;52.150;4.768;2023-03-05T14:36:23;11.80;99.90
16315;DHT22;8266;52.150;4.768;2023-03-05T14:38:52;11.70;99.90
16315;DHT22;8266;52.150;4.768;2023-03-05T14:41:33;11.60;99.90
16315;DHT22;8266;52.150;4.768;2023-03-05T14:44:01;11.50;99.90
16315;DHT22;8266;52.150;4.768;2023-03-05T14:46:29;11.50;99.90
16315;DHT22;8266;52.150;4.768;2023-03-05T14:48:56;11.40;99.90
16315;DHT22;8266;52.150;4.768;2023-03-05T14:51:24;11.40;99.90
16315;DHT22;8266;52.150;4.768;2023-03-05T14:53:51;11.30;99.90
16315;DHT22;8266;52.150;4.768;2023-03-05T14:56:23;11.30;99.90
16315;DHT22;8266;52.150;4.768;2023-03-05T14:58:51;11.20;99.90
16315;DHT22;8266;52.150;4.768;2023-03-05T15:01:18;11.30;99.90
16315;DHT22;8266;52.150;4.768;2023-03-05T15:03:46;11.20;99.90
16315;DHT22;8266;52.150;4.768;2023-03-05T15:06:18;11.20;99.90
16315;DHT22;8266;52.150;4.768;2023-03-05T15:08:46;11.20;99.90
16315;DHT22;8266;52.150;4.768;2023-03-05T15:11:13;11.20;99.90
16315;DHT22;8266;52.150;4.768;2023-03-05T15:13:43;11.20;99.90
16315;DHT22;8266;52.150;4.768;2023-03-05T15:16:14;11.10;99.90
16315;DHT22;8266;52.150;4.768;2023-03-05T15:18:42;11.00;99.90
16315;DHT22;8266;52.150;4.768;2023-03-05T15:21:10;11.00;99.90
16315;DHT22;8266;52.150;4.768;2023-03-05T15:23:37;10.90;99.90
16315;DHT22;8266;52.150;4.768;2023-03-05T15:26:06;10.80;99.90
16315;DHT22;8266;52.150;4.768;2023-03-05T15:28:34;10.70;99.90
16315;DHT22;8266;52.150;4.768;2023-03-05T15:31:03;10.60;99.90
16315;DHT22;8266;52.150;4.768;2023-03-05T15:33:31;10.60;99.90
16315;DHT22;8266;52.150;4.768;2023-03-05T15:35:58;10.50;99.90
16315;DHT22;8266;52.150;4.768;2023-03-05T15:38:27;10.50;99.90
16315;DHT22;8266;52.150;4.768;2023-03-05T15:40:54;10.40;99.90
16315;DHT22;8266;52.150;4.768;2023-03-05T15:43:21;10.30;99.90
16315;DHT22;8266;52.150;4.768;2023-03-05T15:45:48;10.30;99.90
16315;DHT22;8266;52.150;4.768;2023-03-05T15:48:15;10.20;99.90
16315;DHT22;8266;52.150;4.768;2023-03-05T15:50:42;10.10;99.90
16315;DHT22;8266;52.150;4.768;2023-03-05T15:53:11;10.10;99.90
16315;DHT22;8266;52.150;4.768;2023-03-05T15:55:43;9.90;99.90
16315;DHT22;8266;52.150;4.768;2023-03-05T15:58:13;9.80;99.90
16315;DHT22;8266;52.150;4.768;2023-03-05T16:00:41;9.80;99.90
16315;DHT22;8266;52.150;4.768;2023-03-05T16:03:08;9.70;99.90
16315;DHT22;8266;52.150;4.768;2023-03-05T16:05:37;9.70;99.90
16315;DHT22;8266;52.150;4.768;2023-03-05T16:08:04;9.60;99.90
16315;DHT22;8266;52.150;4.768;2023-03-05T16:10:32;9.60;99.90
16315;DHT22;8266;52.150;4.768;2023-03-05T16:13:06;9.60;99.90
16315;DHT22;8266;52.150;4.768;2023-03-05T16:15:34;9.60;99.90
16315;DHT22;8266;52.150;4.768;2023-03-05T16:18:03;9.60;99.90